Time;durP1;ratioP1;P1;durP2;ratioP2;P2;SDS_P1;SDS_P2;PMS_P1;PMS_P2;Temp;Humidity;BMP_temperature;BMP_pressure;BME280_temperature;BME280_humidity;BME280_pressure;Samples;Min_cycle;Max_cycle;Signal;HPM_P1;HPM_P2
2023/05/10 00:00:09;;;;;;;5.05;3.15;;;12.10;90.50;;;;;;5051889;28;20505;-65
2023/05/10 00:02:35;;;;;;;5.07;3.55;;;12.00;90.60;;;;;;5052130;28;20064;-65
2023/05/10 00:05:01;;;;;;;4.32;3.20;;;12.00;90.70;;;;;;5051746;28;20049;-65
2023/05/10 00:07:27;;;;;;;5.65;3.10;;;12.00;90.90;;;;;;5052038;28;20040;-65
2023/05/10 00:09:53;;;;;;;3.35;2.72;;;12.00;91.00;;;;;;5051376;28;20026;-65
2023/05/10 00:12:18;;;;;;;4.40;2.88;;;11.90;91.00;;;;;;5052311;28;20025;-66
2023/05/10 00:14:44;;;;;;;5.25;3.05;;;11.90;90.90;;;;;;5053344;28;20100;-66
2023/05/10 00:17:10;;;;;;;4.65;3.35;;;11.80;91.30;;;;;;5055204;28;20032;-66
2023/05/10 00:19:36;;;;;;;4.57;2.95;;;11.80;91.30;;;;;;5055937;28;20033;-65
2023/05/10 00:22:01;;;;;;;4.82;2.95;;;11.80;91.50;;;;;;5055301;28;20423;-64
2023/05/10 00:24:27;;;;;;;4.05;3.00;;;11.80;91.70;;;;;;5055938;28;20021;-66
2023/05/10 00:26:53;;;;;;;3.47;2.90;;;11.80;91.70;;;;;;5055482;28;20061;-66
2023/05/10 00:29:19;;;;;;;3.60;3.00;;;11.80;91.80;;;;;;5056518;28;20082;-66
2023/05/10 00:31:45;;;;;;;3.42;2.80;;;11.70;91.90;;;;;;5057623;28;20104;-65
2023/05/10 00:34:10;;;;;;;4.20;2.88;;;11.70;92.10;;;;;;5055560;28;20017;-65
2023/05/10 00:36:36;;;;;;;3.47;2.90;;;11.70;92.00;;;;;;5058920;28;20085;-66
2023/05/10 00:39:03;;;;;;;4.57;3.00;;;11.70;92.10;;;;;;5058409;28;20090;-66
2023/05/10 00:41:31;;;;;;;4.75;3.42;;;11.60;92.20;;;;;;5055393;28;20071;-64
2023/05/10 00:43:57;;;;;;;7.53;3.53;;;11.60;92.50;;;;;;5055034;28;20355;-65
2023/05/10 00:46:23;;;;;;;5.63;3.30;;;11.60;92.60;;;;;;5055622;28;20056;-66
2023/05/10 00:48:49;;;;;;;9.40;3.55;;;11.60;92.80;;;;;;5053946;28;20081;-65
2023/05/10 00:51:14;;;;;;;4.53;3.03;;;11.50;93.00;;;;;;5054862;28;20025;-66
2023/05/10 00:53:40;;;;;;;6.18;3.53;;;11.50;93.20;;;;;;5054934;28;20472;-66
2023/05/10 00:56:06;;;;;;;7.63;3.20;;;11.50;93.50;;;;;;5054520;28;20074;-66
2023/05/10 00:58:33;;;;;;;5.28;3.20;;;11.40;93.70;;;;;;5055059;28;20032;-66
2023/05/10 01:00:59;;;;;;;11.68;3.38;;;11.50;93.80;;;;;;5054789;28;20017;-66
2023/05/10 01:03:25;;;;;;;4.35;3.15;;;11.50;93.80;;;;;;5055130;28;20025;-67
2023/05/10 01:05:51;;;;;;;4.68;3.00;;;11.40;94.00;;;;;;5054994;28;20061;-66
2023/05/10 01:08:17;;;;;;;4.80;3.30;;;11.40;94.10;;;;;;5054143;28;20033;-66
2023/05/10 01:10:43;;;;;;;6.50;3.20;;;11.40;94.30;;;;;;5054919;28;20037;-66
2023/05/10 01:13:10;;;;;;;4.80;3.40;;;11.30;94.30;;;;;;5054426;28;20021;-66
2023/05/10 01:15:36;;;;;;;5.22;3.40;;;11.40;94.40;;;;;;5054841;28;20050;-66
2023/05/10 01:18:03;;;;;;;4.20;3.05;;;11.30;94.50;;;;;;5054426;28;20014;-66
2023/05/10 01:20:47;;;;;;;3.70;2.67;;;11.30;94.70;;;;;;5054919;28;20028;-66
2023/05/10 01:23:15;;;;;;;4.32;3.17;;;11.30;94.80;;;;;;5054361;28;20445;-65
2023/05/10 01:26:02;;;;;;;5.95;3.60;;;11.30;94.80;;;;;;5053474;28;20044;-66
2023/05/10 01:28:49;;;;;;;4.32;3.10;;;11.20;94.90;;;;;;5054339;28;20412;-66
2023/05/10 01:31:42;;;;;;;5.95;3.30;;;11.20;95.10;;;;;;5054025;28;20032;-65
2023/05/10 01:34:12;;;;;;;4.72;3.40;;;11.20;95.20;;;;;;5054207;28;20020;-66
2023/05/10 01:37:05;;;;;;;6.65;3.90;;;11.10;95.40;;;;;;5054244;28;20021;-66
2023/05/10 01:39:49;;;;;;;5.82;3.28;;;11.10;95.60;;;;;;5054397;28;20108;-66
2023/05/10 01:42:20;;;;;;;7.32;3.25;;;11.10;95.70;;;;;;5053869;28;20453;-66
2023/05/10 01:45:00;;;;;;;4.40;3.10;;;11.10;95.80;;;;;;5053993;28;20071;-66
2023/05/10 01:47:34;;;;;;;3.40;3.05;;;11.10;95.90;;;;;;5054415;28;20031;-66
2023/05/10 01:50:03;;;;;;;5.55;3.15;;;11.10;96.00;;;;;;5053870;28;20087;-66
2023/05/10 01:52:41;;;;;;;4.13;3.05;;;11.00;96.20;;;;;;5054292;28;20029;-66
2023/05/10 01:55:13;;;;;;;5.25;3.30;;;11.00;96.30;;;;;;5053898;28;20086;-66
2023/05/10 01:57:42;;;;;;;6.38;3.35;;;11.00;96.40;;;;;;5053367;28;20024;-66
2023/05/10 02:00:09;;;;;;;6.80;3.20;;;11.00;96.50;;;;;;5053599;28;20036;-66
2023/05/10 02:02:41;;;;;;;5.15;3.50;;;10.90;96.70;;;;;;5053973;28;20048;-66
2023/05/10 02:05:08;;;;;;;3.55;3.17;;;10.90;96.90;;;;;;5052256;28;20041;-66
2023/05/10 02:07:36;;;;;;;5.38;3.33;;;10.90;97.20;;;;;;5053479;28;20407;-66
2023/05/10 02:10:04;;;;;;;5.93;4.28;;;10.80;97.40;;;;;;5053427;28;20112;-65
2023/05/10 02:12:35;;;;;;;4.68;3.00;;;10.90;97.60;;;;;;5053723;28;20093;-65
2023/05/10 02:15:04;;;;;;;7.80;3.50;;;10.80;97.80;;;;;;5053304;28;20021;-66
2023/05/10 02:17:31;;;;;;;4.60;3.22;;;10.80;98.00;;;;;;5053674;28;20044;-65
2023/05/10 02:19:59;;;;;;;4.85;3.47;;;10.80;98.00;;;;;;5053734;28;20017;-65
2023/05/10 02:22:27;;;;;;;6.13;3.53;;;10.80;98.20;;;;;;5053745;28;20025;-65
2023/05/10 02:24:57;;;;;;;5.55;3.95;;;10.80;98.40;;;;;;5053510;28;20043;-65
2023/05/10 02:27:23;;;;;;;4.32;3.63;;;10.80;98.40;;;;;;5053019;28;20461;-65
2023/05/10 02:29:51;;;;;;;6.15;4.18;;;10.70;98.70;;;;;;5053643;28;20353;-65
2023/05/10 02:32:17;;;;;;;5.57;3.63;;;10.70;99.10;;;;;;5053027;28;20035;-65
2023/05/10 02:34:45;;;;;;;6.97;3.58;;;10.70;99.30;;;;;;5053273;28;20056;-65
2023/05/10 02:37:14;;;;;;;4.22;3.60;;;10.70;99.60;;;;;;5052549;28;20029;-65
2023/05/10 02:39:43;;;;;;;4.25;3.47;;;10.60;99.70;;;;;;5053100;28;20032;-65
2023/05/10 02:42:16;;;;;;;4.35;3.38;;;10.60;99.80;;;;;;5052700;28;20027;-66
2023/05/10 02:44:45;;;;;;;6.75;3.75;;;10.60;99.90;;;;;;5052795;28;20049;-65
2023/05/10 02:47:11;;;;;;;8.88;4.47;;;10.50;99.90;;;;;;5052344;28;20025;-64
2023/05/10 02:49:36;;;;;;;4.78;3.40;;;10.50;99.90;;;;;;5052792;28;20020;-66
2023/05/10 02:52:06;;;;;;;7.03;4.70;;;10.60;99.90;;;;;;5052425;28;20036;-66
2023/05/10 02:54:39;;;;;;;4.97;3.65;;;10.50;99.90;;;;;;5053080;28;20058;-66
2023/05/10 02:57:07;;;;;;;8.80;3.72;;;10.50;99.90;;;;;;5052534;28;20084;-66
2023/05/10 02:59:32;;;;;;;6.07;4.68;;;10.50;99.90;;;;;;5053182;28;20025;-65
2023/05/10 03:02:00;;;;;;;5.70;3.85;;;10.50;99.90;;;;;;5052789;28;20016;-65
2023/05/10 03:04:26;;;;;;;6.35;4.38;;;10.50;99.90;;;;;;5051321;28;20029;-66
2023/05/10 03:06:52;;;;;;;4.72;3.85;;;10.50;99.90;;;;;;5052883;28;20040;-66
2023/05/10 03:09:18;;;;;;;5.20;4.10;;;10.40;99.90;;;;;;5052347;28;20024;-66
2023/05/10 03:11:53;;;;;;;7.82;4.57;;;10.40;99.90;;;;;;5052636;28;20523;-65
2023/05/10 03:14:30;;;;;;;7.32;4.10;;;10.40;99.90;;;;;;5052116;28;20025;-65
2023/05/10 03:17:09;;;;;;;4.05;3.60;;;10.40;99.90;;;;;;5052689;28;20036;-65
2023/05/10 03:19:47;;;;;;;5.78;3.88;;;10.30;99.90;;;;;;5052667;28;20093;-65
2023/05/10 03:22:17;;;;;;;5.10;3.55;;;10.30;99.90;;;;;;5052302;28;20028;-65
2023/05/10 03:24:45;;;;;;;4.97;3.90;;;10.30;99.90;;;;;;5052695;28;20021;-65
2023/05/10 03:27:11;;;;;;;6.65;3.65;;;10.30;99.90;;;;;;5052143;28;20033;-66
2023/05/10 03:29:38;;;;;;;11.35;4.32;;;10.30;99.90;;;;;;5052461;28;20017;-65
2023/05/10 03:32:04;;;;;;;5.55;3.88;;;10.20;99.90;;;;;;5052392;28;20112;-65
2023/05/10 03:34:31;;;;;;;7.63;4.05;;;10.20;99.90;;;;;;5052256;28;20108;-65
2023/05/10 03:36:57;;;;;;;4.85;3.60;;;10.20;99.90;;;;;;5052473;28;20029;-65
2023/05/10 03:39:22;;;;;;;8.05;4.45;;;10.20;99.90;;;;;;5051965;28;20025;-65
2023/05/10 03:41:48;;;;;;;5.95;4.22;;;10.20;99.90;;;;;;5052483;28;20017;-65
2023/05/10 03:44:13;;;;;;;6.47;3.72;;;10.20;99.90;;;;;;5051726;28;20024;-65
2023/05/10 03:46:39;;;;;;;8.35;4.60;;;10.20;99.90;;;;;;5052632;28;20056;-65
2023/05/10 03:49:05;;;;;;;7.35;4.25;;;10.20;99.90;;;;;;5052548;28;20083;-65
2023/05/10 03:51:31;;;;;;;6.88;4.15;;;10.20;99.90;;;;;;5056160;28;20568;-65
2023/05/10 03:53:57;;;;;;;4.82;3.65;;;10.20;99.90;;;;;;5056302;28;20056;-65
2023/05/10 03:56:22;;;;;;;10.90;4.63;;;10.30;99.90;;;;;;5056241;28;20057;-65
2023/05/10 03:58:48;;;;;;;4.95;4.03;;;10.30;99.90;;;;;;5056012;28;20339;-66
2023/05/10 04:01:13;;;;;;;6.72;4.45;;;10.30;99.90;;;;;;5055445;28;20020;-66
2023/05/10 04:03:39;;;;;;;6.35;4.22;;;10.20;99.90;;;;;;5053972;28;20112;-65
2023/05/10 04:06:05;;;;;;;8.57;4.35;;;10.20;99.90;;;;;;5056039;28;20025;-65
2023/05/10 04:08:31;;;;;;;5.60;3.88;;;10.20;99.90;;;;;;5055685;28;20404;-65
2023/05/10 04:11:08;;;;;;;7.28;4.45;;;10.20;99.90;;;;;;5056167;28;20056;-65
2023/05/10 04:13:34;;;;;;;7.43;4.60;;;10.20;99.90;;;;;;5055874;28;20153;-65
2023/05/10 04:16:00;;;;;;;7.22;5.20;;;10.10;99.90;;;;;;5055827;28;20163;-65
2023/05/10 04:18:25;;;;;;;6.53;4.40;;;10.20;99.90;;;;;;5055608;28;20049;-65
2023/05/10 04:20:51;;;;;;;6.38;4.38;;;10.30;99.90;;;;;;5055958;28;20024;-65
2023/05/10 04:23:17;;;;;;;5.10;3.60;;;10.30;99.90;;;;;;5055431;28;20024;-66
2023/05/10 04:25:43;;;;;;;8.25;4.18;;;10.40;99.90;;;;;;5055821;28;20132;-65
2023/05/10 04:28:09;;;;;;;5.93;4.40;;;10.50;99.90;;;;;;5055491;28;20021;-67
2023/05/10 04:30:34;;;;;;;9.77;4.85;;;10.60;99.90;;;;;;5055839;28;20033;-65
2023/05/10 04:33:01;;;;;;;5.88;4.45;;;10.60;99.90;;;;;;5054583;28;20028;-65
2023/05/10 04:35:27;;;;;;;5.85;3.90;;;10.70;99.90;;;;;;5055250;28;20104;-65
2023/05/10 04:37:53;;;;;;;6.38;4.25;;;10.80;99.90;;;;;;5055629;28;20017;-66
2023/05/10 04:40:19;;;;;;;5.95;4.30;;;10.90;99.90;;;;;;5055154;28;20054;-66
2023/05/10 04:42:45;;;;;;;7.68;4.60;;;11.00;99.90;;;;;;5055493;28;20457;-65
2023/05/10 04:45:11;;;;;;;6.82;4.13;;;11.00;99.90;;;;;;5055207;28;20040;-65
2023/05/10 04:47:37;;;;;;;7.90;4.60;;;11.20;99.90;;;;;;5055010;28;20025;-65
2023/05/10 04:50:03;;;;;;;4.90;4.35;;;11.30;99.90;;;;;;5055159;28;20112;-65
2023/05/10 04:52:29;;;;;;;5.97;4.10;;;11.40;99.90;;;;;;5055008;28;20067;-65
2023/05/10 04:54:55;;;;;;;5.90;4.18;;;11.60;99.90;;;;;;5055147;28;20056;-65
2023/05/10 04:57:21;;;;;;;6.63;4.25;;;11.70;99.90;;;;;;5054512;28;20021;-66
2023/05/10 04:59:46;;;;;;;10.30;4.55;;;11.80;99.90;;;;;;5055356;28;20028;-66
2023/05/10 05:02:12;;;;;;;7.05;4.75;;;12.00;99.20;;;;;;5054234;28;20062;-67
2023/05/10 05:04:37;;;;;;;7.60;4.30;;;12.10;98.50;;;;;;5055171;28;20025;-66
2023/05/10 05:07:03;;;;;;;8.43;4.38;;;12.30;97.90;;;;;;5055087;28;20025;-65
2023/05/10 05:09:29;;;;;;;7.03;3.97;;;12.40;96.90;;;;;;5054539;28;20033;-65
2023/05/10 05:11:54;;;;;;;6.82;4.53;;;12.60;96.80;;;;;;5054927;28;20032;-65
2023/05/10 05:14:24;;;;;;;7.95;4.55;;;12.80;95.90;;;;;;5054577;28;20096;-66
2023/05/10 05:16:51;;;;;;;5.82;3.97;;;12.90;95.60;;;;;;5054864;28;20025;-65
2023/05/10 05:19:16;;;;;;;7.00;4.40;;;13.10;94.90;;;;;;5053305;28;20131;-65
2023/05/10 05:21:42;;;;;;;5.03;3.85;;;13.40;93.70;;;;;;5054672;28;20490;-65
2023/05/10 05:24:08;;;;;;;9.68;4.03;;;13.80;92.70;;;;;;5054851;28;20056;-65
2023/05/10 05:26:34;;;;;;;6.43;3.92;;;14.30;91.30;;;;;;5054381;28;20452;-66
2023/05/10 05:28:59;;;;;;;7.88;3.30;;;14.90;87.80;;;;;;5054595;28;20111;-66
2023/05/10 05:31:25;;;;;;;6.85;4.00;;;15.50;85.10;;;;;;5054070;28;20059;-66
2023/05/10 05:33:51;;;;;;;5.55;3.78;;;16.10;81.20;;;;;;5054123;28;20040;-65
2023/05/10 05:36:16;;;;;;;6.13;3.50;;;16.60;76.80;;;;;;5054092;28;20031;-65
2023/05/10 05:38:42;;;;;;;5.15;3.55;;;17.20;74.80;;;;;;5054616;28;20032;-64
2023/05/10 05:41:08;;;;;;;6.70;3.60;;;17.70;71.60;;;;;;5054482;28;20104;-65
2023/05/10 05:43:34;;;;;;;6.50;4.60;;;18.20;69.30;;;;;;5053838;28;20418;-65
2023/05/10 05:45:59;;;;;;;8.73;3.50;;;18.70;68.40;;;;;;5054200;28;20045;-65
2023/05/10 05:48:25;;;;;;;4.97;3.22;;;19.20;64.40;;;;;;5053784;28;20021;-66
2023/05/10 05:50:55;;;;;;;5.25;3.38;;;19.70;62.60;;;;;;5054292;28;20025;-65
2023/05/10 05:53:21;;;;;;;4.03;3.53;;;20.20;60.50;;;;;;5053843;28;20029;-66
2023/05/10 05:55:54;;;;;;;6.63;3.45;;;20.50;60.40;;;;;;5053851;28;20238;-66
2023/05/10 05:58:20;;;;;;;7.53;3.70;;;20.70;57.90;;;;;;5052478;28;20507;-67
2023/05/10 06:00:46;;;;;;;7.15;3.88;;;20.90;57.60;;;;;;5054114;28;20099;-66
2023/05/10 06:03:12;;;;;;;7.75;4.22;;;21.20;57.10;;;;;;5053984;28;20155;-66
2023/05/10 06:05:37;;;;;;;6.47;4.65;;;21.50;55.70;;;;;;5052250;28;20021;-67
2023/05/10 06:08:03;;;;;;;6.68;3.75;;;21.80;54.60;;;;;;5053891;28;20086;-66
2023/05/10 06:10:29;;;;;;;8.38;3.60;;;21.90;54.60;;;;;;5053174;28;20036;-66
2023/05/10 06:12:54;;;;;;;6.57;3.80;;;22.00;53.90;;;;;;5052748;28;20079;-66
2023/05/10 06:15:20;;;;;;;7.90;3.78;;;22.30;53.70;;;;;;5053460;28;20021;-66
2023/05/10 06:17:46;;;;;;;4.20;3.67;;;22.90;52.90;;;;;;5053774;28;20025;-65
2023/05/10 06:20:13;;;;;;;10.30;3.70;;;23.20;50.90;;;;;;5053585;28;20032;-65
2023/05/10 06:22:38;;;;;;;6.10;3.90;;;23.40;49.80;;;;;;5052851;28;20457;-65
2023/05/10 06:25:04;;;;;;;5.50;3.60;;;23.60;48.70;;;;;;5053466;28;20025;-65
2023/05/10 06:27:30;;;;;;;7.60;3.90;;;23.80;47.40;;;;;;5053147;28;20048;-65
2023/05/10 06:29:55;;;;;;;7.65;3.30;;;23.90;47.30;;;;;;5053327;28;20476;-65
2023/05/10 06:32:21;;;;;;;4.93;3.05;;;24.10;47.50;;;;;;5052814;28;20104;-65
2023/05/10 06:34:47;;;;;;;7.55;3.50;;;24.20;46.00;;;;;;5053440;28;20036;-65
2023/05/10 06:37:13;;;;;;;6.32;3.53;;;24.30;46.20;;;;;;5053561;28;20104;-65
2023/05/10 06:39:38;;;;;;;7.95;3.55;;;24.30;46.20;;;;;;5052693;28;20083;-65
2023/05/10 06:42:04;;;;;;;10.15;3.67;;;24.00;45.80;;;;;;5053213;28;20021;-64
2023/05/10 06:44:30;;;;;;;6.25;3.97;;;24.10;46.20;;;;;;5052473;28;20368;-65
2023/05/10 06:46:55;;;;;;;6.35;3.22;;;24.50;45.20;;;;;;5053266;28;20093;-66
2023/05/10 06:49:21;;;;;;;5.07;3.38;;;24.60;43.50;;;;;;5052003;28;20072;-64
2023/05/10 06:51:48;;;;;;;8.43;3.28;;;24.60;43.90;;;;;;5053282;28;20029;-66
2023/05/10 06:54:14;;;;;;;6.85;3.90;;;24.90;43.90;;;;;;5052570;28;20373;-65
2023/05/10 06:56:39;;;;;;;5.25;3.33;;;25.30;42.80;;;;;;5052385;28;20021;-66
2023/05/10 06:59:05;;;;;;;6.70;3.38;;;25.50;42.90;;;;;;5052613;28;20514;-66
2023/05/10 07:01:31;;;;;;;5.20;3.65;;;25.60;42.30;;;;;;5052425;28;20115;-66
2023/05/10 07:03:56;;;;;;;4.78;3.20;;;25.50;41.80;;;;;;5052902;28;20048;-66
2023/05/10 07:06:22;;;;;;;5.72;3.67;;;25.70;42.30;;;;;;5052542;28;20067;-66
2023/05/10 07:08:47;;;;;;;5.95;3.50;;;25.80;42.40;;;;;;5052860;28;20074;-66
2023/05/10 07:11:13;;;;;;;6.57;3.80;;;26.00;41.30;;;;;;5052341;28;20032;-66
2023/05/10 07:13:41;;;;;;;7.25;3.35;;;26.00;41.50;;;;;;5052192;28;20029;-66
2023/05/10 07:16:07;;;;;;;4.85;3.70;;;26.40;40.70;;;;;;5052406;28;20025;-66
2023/05/10 07:18:33;;;;;;;8.57;4.18;;;26.40;40.30;;;;;;5052025;28;20025;-66
2023/05/10 07:20:59;;;;;;;14.25;4.05;;;26.60;40.30;;;;;;5052603;28;20415;-66
2023/05/10 07:23:24;;;;;;;11.23;3.80;;;26.90;39.90;;;;;;5050912;28;20032;-66
2023/05/10 07:25:52;;;;;;;5.95;3.65;;;27.20;39.70;;;;;;5052675;28;20017;-66
2023/05/10 07:28:18;;;;;;;7.03;3.30;;;27.00;40.00;;;;;;5052543;28;20025;-65
2023/05/10 07:30:44;;;;;;;6.80;4.18;;;27.20;39.90;;;;;;5052132;28;20131;-67
2023/05/10 07:33:12;;;;;;;6.63;4.15;;;26.70;40.60;;;;;;5052875;28;20361;-66
2023/05/10 07:35:38;;;;;;;5.35;3.30;;;26.70;40.60;;;;;;5053536;28;20047;-66
2023/05/10 07:38:03;;;;;;;6.53;4.57;;;27.00;40.80;;;;;;5053297;28;20068;-66
2023/05/10 07:40:30;;;;;;;8.07;4.35;;;27.10;40.70;;;;;;5052946;28;20040;-66
2023/05/10 07:42:55;;;;;;;5.85;3.50;;;27.00;41.10;;;;;;5053308;28;20028;-66
2023/05/10 07:45:21;;;;;;;6.95;3.63;;;27.30;41.00;;;;;;5053448;28;20045;-66
2023/05/10 07:47:47;;;;;;;4.47;3.58;;;27.50;40.80;;;;;;5052530;28;20458;-66
2023/05/10 07:50:13;;;;;;;7.03;3.92;;;27.70;40.30;;;;;;5052612;28;20021;-66
2023/05/10 07:52:38;;;;;;;5.25;3.70;;;27.20;39.10;;;;;;5052244;28;20036;-66
2023/05/10 07:55:05;;;;;;;14.23;4.32;;;26.80;39.60;;;;;;5052314;28;20024;-66
2023/05/10 07:57:30;;;;;;;5.53;3.85;;;26.40;40.60;;;;;;5051978;28;20032;-66
2023/05/10 07:59:56;;;;;;;9.20;4.45;;;26.20;42.20;;;;;;5052261;28;20024;-65
2023/05/10 08:02:22;;;;;;;7.88;4.60;;;26.00;42.60;;;;;;5052319;28;20063;-65
2023/05/10 08:04:47;;;;;;;12.65;5.53;;;25.80;42.20;;;;;;5051871;28;20051;-65
2023/05/10 08:07:13;;;;;;;6.38;3.95;;;25.40;42.60;;;;;;5051331;28;20485;-65
2023/05/10 08:09:38;;;;;;;9.02;3.95;;;25.00;43.00;;;;;;5051310;28;20033;-66
2023/05/10 08:12:04;;;;;;;6.93;3.90;;;24.70;44.20;;;;;;5051652;28;20033;-66
2023/05/10 08:14:30;;;;;;;5.57;3.80;;;24.20;44.60;;;;;;5051722;28;20017;-66
2023/05/10 08:16:56;;;;;;;5.90;3.90;;;23.70;45.60;;;;;;5052268;28;20346;-65
2023/05/10 08:19:22;;;;;;;5.20;3.83;;;23.50;45.80;;;;;;5052221;28;20147;-65
2023/05/10 08:21:48;;;;;;;8.85;4.32;;;23.30;46.10;;;;;;5051746;28;20096;-66
2023/05/10 08:24:14;;;;;;;11.13;3.80;;;23.50;46.50;;;;;;5051770;28;20531;-66
2023/05/10 08:26:40;;;;;;;10.27;3.33;;;23.90;46.20;;;;;;5051514;28;20075;-66
2023/05/10 08:29:06;;;;;;;6.18;3.40;;;23.70;45.50;;;;;;5051715;28;20025;-66
2023/05/10 08:31:31;;;;;;;5.55;3.58;;;23.50;46.60;;;;;;5051687;28;20025;-66
2023/05/10 08:33:57;;;;;;;7.75;3.58;;;23.10;47.60;;;;;;5052544;28;20468;-66
2023/05/10 08:36:24;;;;;;;3.25;2.95;;;23.10;48.40;;;;;;5054206;28;20044;-66
2023/05/10 08:38:53;;;;;;;6.40;3.28;;;22.90;48.00;;;;;;5055161;28;20071;-65
2023/05/10 08:41:25;;;;;;;3.47;3.10;;;22.50;47.70;;;;;;5055480;28;20035;-65
2023/05/10 08:43:52;;;;;;;4.25;3.17;;;22.20;49.30;;;;;;5055369;28;20024;-65
2023/05/10 08:46:20;;;;;;;5.40;3.20;;;21.80;50.40;;;;;;5055565;28;20064;-65
2023/05/10 08:48:47;;;;;;;6.45;2.92;;;21.70;51.00;;;;;;5054557;28;20412;-65
2023/05/10 08:51:35;;;;;;;3.58;3.00;;;21.60;51.80;;;;;;5055395;28;20028;-66
2023/05/10 08:54:02;;;;;;;3.63;2.42;;;21.40;51.90;;;;;;5055158;28;20092;-66
2023/05/10 08:56:28;;;;;;;6.15;2.70;;;21.30;52.30;;;;;;5054917;28;20033;-66
2023/05/10 08:58:54;;;;;;;7.05;3.50;;;21.20;52.00;;;;;;5055140;28;20354;-65
2023/05/10 09:01:21;;;;;;;3.83;2.67;;;20.90;53.20;;;;;;5055152;28;20024;-66
2023/05/10 09:03:48;;;;;;;6.70;2.80;;;20.60;53.90;;;;;;5054832;28;20048;-64
2023/05/10 09:06:14;;;;;;;3.47;2.33;;;20.50;56.10;;;;;;5055198;28;20070;-65
2023/05/10 09:08:41;;;;;;;5.32;3.00;;;20.40;54.50;;;;;;5054650;28;20032;-66
2023/05/10 09:11:08;;;;;;;4.90;2.60;;;20.20;55.00;;;;;;5055052;28;20032;-65
2023/05/10 09:13:35;;;;;;;2.90;2.55;;;20.10;56.80;;;;;;5054569;28;20091;-66
2023/05/10 09:16:02;;;;;;;5.60;2.20;;;20.10;56.50;;;;;;5055288;28;20025;-65
2023/05/10 09:18:28;;;;;;;6.07;2.42;;;20.10;54.90;;;;;;5054718;28;20025;-66
2023/05/10 09:20:54;;;;;;;3.53;1.60;;;20.00;56.10;;;;;;5054725;28;20353;-65
2023/05/10 09:23:19;;;;;;;5.05;2.22;;;20.10;55.90;;;;;;5053417;28;20033;-65
2023/05/10 09:25:45;;;;;;;3.58;1.55;;;20.10;54.90;;;;;;5054182;28;20044;-65
2023/05/10 09:28:11;;;;;;;1.63;1.38;;;20.10;55.10;;;;;;5053533;28;20021;-66
2023/05/10 09:30:37;;;;;;;2.03;1.63;;;20.00;55.80;;;;;;5053888;28;20029;-66
2023/05/10 09:33:03;;;;;;;7.55;1.40;;;19.90;55.20;;;;;;5054512;28;20066;-65
2023/05/10 09:35:30;;;;;;;1.85;1.48;;;19.80;56.40;;;;;;5054466;28;20025;-65
2023/05/10 09:37:59;;;;;;;1.60;1.20;;;19.90;56.30;;;;;;5054421;28;20028;-65
2023/05/10 09:40:26;;;;;;;4.03;1.63;;;19.90;55.70;;;;;;5053876;28;20424;-67
2023/05/10 09:43:00;;;;;;;7.85;1.73;;;19.90;55.40;;;;;;5053613;28;20028;-66
2023/05/10 09:45:31;;;;;;;1.80;1.38;;;19.80;55.30;;;;;;5054443;28;20124;-66
2023/05/10 09:47:58;;;;;;;2.40;1.60;;;19.80;55.90;;;;;;5053209;28;20017;-65
2023/05/10 09:50:25;;;;;;;4.53;1.55;;;19.80;56.40;;;;;;5054009;28;20138;-66
2023/05/10 09:52:55;;;;;;;3.17;1.17;;;19.80;56.00;;;;;;5053623;28;20108;-66
2023/05/10 09:55:22;;;;;;;2.17;1.10;;;19.80;56.00;;;;;;5054124;28;20032;-66
2023/05/10 09:57:49;;;;;;;3.08;1.48;;;19.70;55.40;;;;;;5053610;28;20025;-64
2023/05/10 10:00:19;;;;;;;3.92;1.27;;;19.70;56.30;;;;;;5053576;28;20051;-65
2023/05/10 10:02:56;;;;;;;3.10;1.55;;;19.70;55.60;;;;;;5053510;28;20020;-65
2023/05/10 10:05:29;;;;;;;5.75;1.77;;;19.60;56.50;;;;;;5053204;28;20104;-65
2023/05/10 10:07:56;;;;;;;1.92;1.27;;;19.70;55.50;;;;;;5053526;28;20013;-65
2023/05/10 10:10:22;;;;;;;2.13;1.20;;;19.60;55.20;;;;;;5053685;28;20075;-66
2023/05/10 10:12:48;;;;;;;5.03;1.48;;;19.70;56.10;;;;;;5053429;28;20032;-65
2023/05/10 10:15:14;;;;;;;2.35;1.33;;;19.80;55.10;;;;;;5053378;28;20017;-66
2023/05/10 10:17:40;;;;;;;3.75;1.45;;;19.80;54.80;;;;;;5053008;28;20104;-66
2023/05/10 10:20:07;;;;;;;5.03;1.10;;;19.70;54.80;;;;;;5052242;28;20475;-65
2023/05/10 10:22:33;;;;;;;2.90;1.38;;;19.80;54.90;;;;;;5053637;28;20314;-66
2023/05/10 10:24:59;;;;;;;4.75;1.60;;;19.80;54.80;;;;;;5053298;28;20017;-66
2023/05/10 10:27:36;;;;;;;1.90;1.15;;;19.70;54.40;;;;;;5053547;28;20021;-66
2023/05/10 10:30:35;;;;;;;1.60;1.50;;;19.80;55.50;;;;;;5053491;28;20417;-66
2023/05/10 10:33:28;;;;;;;2.05;1.40;;;19.90;55.20;;;;;;5053299;28;20048;-66
2023/05/10 10:35:55;;;;;;;5.88;1.77;;;19.90;54.40;;;;;;5052703;28;20020;-66
2023/05/10 10:38:21;;;;;;;2.70;1.40;;;19.80;54.40;;;;;;5053241;28;20035;-66
2023/05/10 10:40:47;;;;;;;1.23;1.13;;;19.70;54.30;;;;;;5052775;28;20078;-66
2023/05/10 10:43:26;;;;;;;1.63;1.15;;;19.70;54.30;;;;;;5053096;28;20021;-66
2023/05/10 10:46:13;;;;;;;2.63;1.50;;;19.80;55.20;;;;;;5052405;28;20416;-66
2023/05/10 10:48:40;;;;;;;1.30;1.20;;;19.80;54.60;;;;;;5052618;28;20161;-66
2023/05/10 10:51:06;;;;;;;5.40;1.63;;;19.80;54.10;;;;;;5053198;28;20067;-66
2023/05/10 10:53:32;;;;;;;5.53;1.45;;;19.90;54.70;;;;;;5052720;28;20410;-65
2023/05/10 10:56:09;;;;;;;2.45;1.35;;;19.90;54.60;;;;;;5052369;28;20025;-67
2023/05/10 10:58:38;;;;;;;2.65;1.30;;;20.00;54.40;;;;;;5052578;28;20029;-66
2023/05/10 11:01:15;;;;;;;3.22;1.30;;;20.10;54.10;;;;;;5052439;28;20078;-64
2023/05/10 11:03:54;;;;;;;4.15;1.50;;;20.10;53.40;;;;;;5052440;28;20053;-65
2023/05/10 11:06:29;;;;;;;1.90;1.48;;;20.10;54.10;;;;;;5052943;28;20024;-65
2023/05/10 11:08:55;;;;;;;3.45;1.60;;;20.10;54.70;;;;;;5052452;28;20032;-66
2023/05/10 11:11:21;;;;;;;1.80;1.38;;;20.20;54.60;;;;;;5052797;28;20139;-66
2023/05/10 11:13:48;;;;;;;4.63;1.40;;;20.20;53.30;;;;;;5052183;28;20060;-66
2023/05/10 11:16:17;;;;;;;7.03;1.48;;;20.20;52.90;;;;;;5052758;28;20067;-65
2023/05/10 11:19:07;;;;;;;5.65;1.30;;;20.10;53.30;;;;;;5052337;28;20032;-66
2023/05/10 11:21:43;;;;;;;2.78;1.30;;;20.00;53.40;;;;;;5052405;28;20039;-66
2023/05/10 11:24:14;;;;;;;1.52;1.02;;;20.00;54.30;;;;;;5051340;28;20028;-66
2023/05/10 11:26:40;;;;;;;2.08;1.48;;;20.10;53.80;;;;;;5052155;28;20086;-66
2023/05/10 11:29:06;;;;;;;6.93;2.58;;;20.10;53.70;;;;;;5052397;28;20021;-66
2023/05/10 11:31:31;;;;;;;1.60;1.33;;;20.00;53.80;;;;;;5052397;28;20021;-66
2023/05/10 11:33:59;;;;;;;4.70;1.27;;;20.00;53.90;;;;;;5052047;28;20104;-66
2023/05/10 11:36:28;;;;;;;4.80;1.30;;;19.90;54.50;;;;;;5052335;28;20056;-65
2023/05/10 11:38:55;;;;;;;1.95;1.27;;;19.90;53.90;;;;;;5051799;28;20063;-66
2023/05/10 11:41:22;;;;;;;3.00;1.42;;;20.00;53.90;;;;;;5052048;28;20013;-66
2023/05/10 11:43:51;;;;;;;3.33;1.20;;;20.00;54.00;;;;;;5051325;28;20017;-65
2023/05/10 11:46:20;;;;;;;4.20;1.40;;;19.90;54.30;;;;;;5052599;28;20118;-65
2023/05/10 11:48:48;;;;;;;1.60;1.40;;;19.90;54.90;;;;;;5051908;28;20060;-65
2023/05/10 11:51:14;;;;;;;2.35;1.40;;;19.80;54.80;;;;;;5052567;28;20097;-65
2023/05/10 11:53:40;;;;;;;2.78;1.45;;;19.80;54.80;;;;;;5051901;28;20364;-68
2023/05/10 11:56:10;;;;;;;2.55;1.10;;;19.80;55.10;;;;;;5052555;28;20455;-65
2023/05/10 11:58:38;;;;;;;1.20;1.10;;;19.70;52.30;;;;;;5051916;28;20482;-65
2023/05/10 12:01:07;;;;;;;2.28;1.23;;;19.70;52.80;;;;;;5049783;28;20131;-66
2023/05/10 12:03:33;;;;;;;1.55;1.20;;;19.60;54.60;;;;;;5051891;28;20488;-66
2023/05/10 12:06:02;;;;;;;4.43;1.80;;;19.60;55.50;;;;;;5051179;28;20025;-66
2023/05/10 12:08:29;;;;;;;4.68;1.40;;;19.50;55.80;;;;;;5051686;28;20024;-66
2023/05/10 12:11:06;;;;;;;1.63;1.10;;;19.50;55.40;;;;;;5052825;28;20025;-66
2023/05/10 12:13:32;;;;;;;6.25;1.35;;;19.50;55.40;;;;;;5055534;28;20039;-66
2023/05/10 12:15:58;;;;;;;1.88;1.02;;;19.40;53.60;;;;;;5055029;28;20017;-66
2023/05/10 12:18:25;;;;;;;3.65;1.60;;;19.30;54.50;;;;;;5055376;28;20012;-66
2023/05/10 12:20:53;;;;;;;4.05;1.30;;;19.30;55.30;;;;;;5054861;28;20049;-66
2023/05/10 12:23:20;;;;;;;3.72;1.45;;;19.40;55.10;;;;;;5055377;28;20104;-66
2023/05/10 12:25:46;;;;;;;1.85;1.10;;;19.40;53.50;;;;;;5055348;28;20021;-66
2023/05/10 12:28:12;;;;;;;1.70;1.23;;;19.30;54.00;;;;;;5055595;28;20028;-66
2023/05/10 12:30:38;;;;;;;1.67;1.00;;;19.40;53.10;;;;;;5055900;28;20025;-65
2023/05/10 12:33:10;;;;;;;4.25;1.33;;;19.30;53.00;;;;;;5055470;28;20074;-65
2023/05/10 12:35:53;;;;;;;3.65;1.15;;;19.20;53.00;;;;;;5055781;28;20074;-66
2023/05/10 12:38:24;;;;;;;4.10;1.25;;;19.20;53.40;;;;;;5055371;28;20036;-66
2023/05/10 12:40:50;;;;;;;4.45;1.30;;;19.20;53.60;;;;;;5055212;28;20025;-66
2023/05/10 12:43:16;;;;;;;1.55;1.10;;;19.20;52.90;;;;;;5055301;28;20108;-65
2023/05/10 12:45:41;;;;;;;2.97;1.45;;;19.20;53.80;;;;;;5055342;28;20071;-66
2023/05/10 12:48:07;;;;;;;2.88;1.25;;;19.20;54.50;;;;;;5053724;28;20028;-66